Time;durP1;ratioP1;P1;durP2;ratioP2;P2;SDS_P1;SDS_P2;PMS_P1;PMS_P2;Temp;Humidity;BMP_temperature;BMP_pressure;BME280_temperature;BME280_humidity;BME280_pressure;Samples;Min_cycle;Max_cycle;Signal;HPM_P1;HPM_P2
2021/12/30 00:00:17;;;;;;;48.40;22.67;;;;;;;-2.92;100.00;100218.60;1771685;81;21271;-81
2021/12/30 00:03:22;;;;;;;59.33;27.20;;;;;;;-2.89;100.00;100226.94;1766611;80;21303;-80
2021/12/30 00:06:27;;;;;;;64.92;28.15;;;;;;;-2.88;100.00;100226.84;1760107;80;21846;-80
2021/12/30 00:09:33;;;;;;;67.12;29.10;;;;;;;-2.83;100.00;100222.06;1731206;83;21354;-80
2021/12/30 00:12:39;;;;;;;61.85;27.25;;;;;;;-2.73;100.00;100221.50;1769777;81;21199;-80
2021/12/30 00:15:46;;;;;;;65.47;30.10;;;;;;;-2.72;100.00;100231.28;1770522;81;21166;-80
2021/12/30 00:18:53;;;;;;;69.87;31.80;;;;;;;-2.74;100.00;100227.34;1770002;81;21784;-80
2021/12/30 00:21:59;;;;;;;84.77;37.48;;;;;;;-2.74;100.00;100223.32;1771340;81;21307;-80
2021/12/30 00:25:08;;;;;;;72.78;29.15;;;;;;;-2.73;100.00;100226.86;1769913;81;21761;-80
2021/12/30 00:28:05;;;;;;;64.42;26.42;;;;;;;-2.72;100.00;100224.59;1770608;81;21319;-81
2021/12/30 00:31:11;;;;;;;67.20;27.77;;;;;;;-2.65;100.00;100233.47;1771509;81;21749;-80
2021/12/30 00:34:16;;;;;;;66.65;28.38;;;;;;;-2.64;100.00;100232.98;1734694;83;21292;-80
2021/12/30 00:37:21;;;;;;;62.62;27.73;;;;;;;-2.64;100.00;100241.02;1729620;83;21213;-81
2021/12/30 00:40:29;;;;;;;67.87;27.93;;;;;;;-2.65;100.00;100235.28;1724859;83;21335;-81
2021/12/30 00:43:35;;;;;;;59.73;27.87;;;;;;;-2.65;100.00;100236.14;1730335;83;21356;-81
2021/12/30 00:46:40;;;;;;;62.23;26.05;;;;;;;-2.67;100.00;100227.84;1731360;82;21237;-81
2021/12/30 00:49:47;;;;;;;65.20;26.40;;;;;;;-2.65;100.00;100229.93;1729925;83;21332;-81
2021/12/30 00:52:52;;;;;;;54.73;25.15;;;;;;;-2.62;100.00;100231.09;1729168;83;21327;-81
2021/12/30 00:55:57;;;;;;;64.42;28.57;;;;;;;-2.62;100.00;100229.27;1730169;83;21313;-80
2021/12/30 00:59:03;;;;;;;57.67;27.40;;;;;;;-2.64;100.00;100235.66;1730102;83;21166;-81
2021/12/30 01:02:07;;;;;;;57.67;26.73;;;;;;;-2.69;100.00;100227.05;1730105;83;21347;-80
2021/12/30 01:05:14;;;;;;;71.30;30.57;;;;;;;-2.70;100.00;100224.00;1729541;81;21307;-81
2021/12/30 01:08:20;;;;;;;66.05;26.97;;;;;;;-2.70;100.00;100234.71;1729606;82;21225;-81
2021/12/30 01:11:26;;;;;;;76.80;30.75;;;;;;;-2.69;100.00;100229.25;1729694;82;21709;-81
2021/12/30 01:14:34;;;;;;;66.17;28.95;;;;;;;-2.67;100.00;100231.38;1729747;82;21280;-80
2021/12/30 01:20:49;;;;;;;69.50;29.10;;;;;;;-2.63;100.00;100243.63;1730099;82;21833;-81
2021/12/30 01:23:55;;;;;;;72.90;29.40;;;;;;;-2.63;100.00;100238.75;1728362;82;21292;-81
2021/12/30 01:27:02;;;;;;;67.50;29.25;;;;;;;-2.57;100.00;100242.38;1728659;82;21231;-81
2021/12/30 01:30:08;;;;;;;67.97;30.52;;;;;;;-2.53;100.00;100245.25;1729781;82;21280;-80
2021/12/30 01:33:14;;;;;;;75.57;29.67;;;;;;;-2.49;100.00;100240.55;1728763;82;21347;-82
2021/12/30 01:36:21;;;;;;;66.33;30.25;;;;;;;-2.47;100.00;100239.98;1729845;81;21892;-82
2021/12/30 01:39:26;;;;;;;68.95;29.02;;;;;;;-2.53;100.00;100242.58;1729813;82;21276;-81
2021/12/30 01:42:33;;;;;;;87.45;30.37;;;;;;;-2.63;100.00;100238.27;1729488;82;21319;-80
2021/12/30 01:45:41;;;;;;;67.42;28.38;;;;;;;-2.67;100.00;100239.89;1729692;82;21769;-80
2021/12/30 01:48:48;;;;;;;69.35;29.45;;;;;;;-2.62;100.00;100236.45;1728336;82;21323;-80
2021/12/30 01:51:54;;;;;;;68.85;29.72;;;;;;;-2.63;100.00;100242.28;1729390;81;21692;-81
2021/12/30 01:55:00;;;;;;;73.28;30.60;;;;;;;-2.67;100.00;100238.55;1728593;82;21371;-81
2021/12/30 01:58:08;;;;;;;70.95;30.80;;;;;;;-2.69;100.00;100239.10;1728955;82;21319;-81
2021/12/30 02:01:13;;;;;;;73.47;31.10;;;;;;;-2.70;100.00;100240.06;1714399;83;21303;-82
2021/12/30 02:04:21;;;;;;;69.12;30.95;;;;;;;-2.69;100.00;100241.78;1724854;82;21193;-80
2021/12/30 02:07:25;;;;;;;83.55;30.60;;;;;;;-2.73;100.00;100245.59;1719093;82;21727;-80
2021/12/30 02:10:34;;;;;;;77.22;30.02;;;;;;;-2.77;100.00;100252.12;1718901;82;21177;-80
2021/12/30 02:13:39;;;;;;;81.32;32.58;;;;;;;-2.84;100.00;100250.27;1718905;83;21209;-81
2021/12/30 02:16:48;;;;;;;65.60;28.23;;;;;;;-2.88;100.00;100260.30;1765400;81;21204;-81
2021/12/30 02:19:55;;;;;;;82.20;29.67;;;;;;;-2.88;100.00;100256.28;1766875;81;21185;-82
2021/12/30 02:23:01;;;;;;;79.30;31.17;;;;;;;-2.92;100.00;100261.43;1765512;80;21180;-80
2021/12/30 02:26:13;;;;;;;78.65;32.90;;;;;;;-2.90;100.00;100264.89;1766869;81;21173;-80
2021/12/30 02:29:18;;;;;;;84.72;32.83;;;;;;;-2.87;100.00;100261.16;1725675;83;21292;-81
2021/12/30 02:32:25;;;;;;;78.45;32.33;;;;;;;-2.79;100.00;100256.20;1724549;83;21217;-81
2021/12/30 02:35:31;;;;;;;76.57;34.60;;;;;;;-2.81;100.00;100264.83;1724839;83;21177;-81
2021/12/30 02:38:37;;;;;;;74.00;31.55;;;;;;;-2.81;100.00;100257.27;1724779;81;21818;-80
2021/12/30 02:41:43;;;;;;;78.00;32.90;;;;;;;-2.76;100.00;100260.53;1723376;83;21352;-80
2021/12/30 02:44:49;;;;;;;80.90;32.80;;;;;;;-2.72;100.00;100259.39;1723498;83;21165;-81
2021/12/30 02:47:54;;;;;;;80.65;32.25;;;;;;;-2.67;100.00;100264.84;1723931;83;21358;-80
2021/12/30 02:51:02;;;;;;;75.97;30.20;;;;;;;-2.64;100.00;100267.80;1723492;83;21743;-81
2021/12/30 02:54:07;;;;;;;79.03;32.20;;;;;;;-2.63;100.00;100265.05;1723016;82;21297;-81
2021/12/30 02:57:13;;;;;;;79.00;31.48;;;;;;;-2.61;100.00;100265.80;1724703;83;21304;-80
2021/12/30 03:00:18;;;;;;;70.52;29.02;;;;;;;-2.55;100.00;100267.72;1725074;83;21276;-81
2021/12/30 03:03:27;;;;;;;69.30;29.45;;;;;;;-2.55;100.00;100275.27;1725055;83;21316;-81
2021/12/30 03:06:33;;;;;;;64.77;29.18;;;;;;;-2.64;100.00;100283.86;1726219;82;21249;-82
2021/12/30 03:09:39;;;;;;;84.32;32.80;;;;;;;-2.68;100.00;100287.68;1725761;82;21174;-81
2021/12/30 03:12:51;;;;;;;79.50;32.45;;;;;;;-2.75;100.00;100291.22;1727015;83;21244;-81
2021/12/30 03:15:54;;;;;;;80.35;33.23;;;;;;;-2.81;100.00;100296.95;1727709;83;21288;-81
2021/12/30 03:19:01;;;;;;;75.20;30.30;;;;;;;-2.84;100.00;100285.94;1726222;83;21725;-80
2021/12/30 03:22:09;;;;;;;80.85;31.87;;;;;;;-2.83;100.00;100286.79;1727225;83;21324;-80
2021/12/30 03:25:15;;;;;;;63.92;27.25;;;;;;;-2.84;100.00;100291.28;1727450;83;21280;-82
2021/12/30 03:28:20;;;;;;;75.62;29.25;;;;;;;-2.80;100.00;100287.09;1726336;82;21617;-81
2021/12/30 03:31:26;;;;;;;71.77;30.20;;;;;;;-2.84;100.00;100283.73;1727677;83;21280;-82
2021/12/30 03:34:31;;;;;;;73.25;30.20;;;;;;;-2.88;100.00;100289.73;1727644;83;21273;-81
2021/12/30 03:37:36;;;;;;;79.37;30.35;;;;;;;-2.87;100.00;100287.47;1727709;83;21315;-81
2021/12/30 03:40:41;;;;;;;73.40;30.80;;;;;;;-2.88;100.00;100288.41;1766996;81;21320;-81
2021/12/30 03:43:46;;;;;;;76.87;32.95;;;;;;;-2.82;100.00;100296.57;1767021;81;21322;-81
2021/12/30 03:46:52;;;;;;;80.95;29.82;;;;;;;-2.79;100.00;100294.17;1758562;81;21316;-80
2021/12/30 03:49:57;;;;;;;67.85;28.32;;;;;;;-2.77;100.00;100289.60;1756544;81;21193;-80
2021/12/30 03:53:04;;;;;;;75.70;30.70;;;;;;;-2.76;100.00;100292.66;1756592;80;21308;-81
2021/12/30 03:56:10;;;;;;;79.20;29.37;;;;;;;-2.79;100.00;100293.69;1756522;81;21806;-81
2021/12/30 03:59:15;;;;;;;73.25;30.43;;;;;;;-2.75;100.00;100289.02;1756521;81;21197;-81
2021/12/30 04:02:21;;;;;;;75.42;31.82;;;;;;;-2.72;100.00;100291.52;1756505;81;21193;-81
2021/12/30 04:05:26;;;;;;;65.75;29.23;;;;;;;-2.70;100.00;100297.16;1756481;81;21708;-81
2021/12/30 04:08:31;;;;;;;72.60;27.80;;;;;;;-2.70;100.00;100296.30;1729681;81;21201;-81
2021/12/30 04:11:37;;;;;;;71.70;30.50;;;;;;;-2.71;100.00;100297.26;1729638;82;21170;-80
2021/12/30 04:14:43;;;;;;;76.10;31.77;;;;;;;-2.72;100.00;100292.86;1730735;82;21170;-81
2021/12/30 04:17:48;;;;;;;73.67;30.75;;;;;;;-2.77;100.00;100297.16;1704986;83;21885;-81
2021/12/30 04:20:54;;;;;;;66.28;27.80;;;;;;;-2.78;100.00;100299.91;1729747;82;21276;-80
2021/12/30 04:23:59;;;;;;;73.80;29.75;;;;;;;-2.79;100.00;100299.05;1729574;81;21253;-81
2021/12/30 04:27:05;;;;;;;83.45;31.57;;;;;;;-2.83;100.00;100305.05;1729621;82;21312;-81
2021/12/30 04:30:12;;;;;;;77.90;31.07;;;;;;;-2.85;100.00;100308.31;1730786;82;21292;-80
2021/12/30 04:33:17;;;;;;;63.10;27.67;;;;;;;-2.77;100.00;100307.00;1729883;82;21808;-81
2021/12/30 04:36:23;;;;;;;73.40;29.60;;;;;;;-2.68;100.00;100321.15;1728192;82;21785;-81
2021/12/30 04:39:29;;;;;;;66.15;29.72;;;;;;;-2.66;100.00;100320.59;1729371;82;21212;-81
2021/12/30 04:42:34;;;;;;;74.90;31.52;;;;;;;-2.68;100.00;100326.05;1729656;82;21807;-80
2021/12/30 04:45:39;;;;;;;72.75;29.75;;;;;;;-2.66;100.00;100338.00;1729853;82;21830;-81
2021/12/30 04:48:44;;;;;;;75.87;30.08;;;;;;;-2.63;100.00;100336.02;1731424;82;21775;-81
2021/12/30 04:51:48;;;;;;;70.20;30.77;;;;;;;-2.62;100.00;100332.37;1733977;83;21319;-82
2021/12/30 04:54:54;;;;;;;79.55;31.10;;;;;;;-2.61;100.00;100336.77;1732610;81;21890;-80
2021/12/30 04:58:00;;;;;;;84.52;31.50;;;;;;;-2.65;100.00;100337.05;1727583;83;21300;-81
2021/12/30 05:01:05;;;;;;;80.53;32.17;;;;;;;-2.67;100.00;100344.32;1699100;84;21307;-81
2021/12/30 05:04:11;;;;;;;79.37;32.08;;;;;;;-2.74;100.00;100341.13;1734436;83;21304;-81
2021/12/30 05:07:16;;;;;;;78.45;33.02;;;;;;;-2.77;100.00;100353.38;1741308;81;21324;-81
2021/12/30 05:10:22;;;;;;;71.07;29.23;;;;;;;-2.76;100.00;100354.23;1750600;81;21857;-81
2021/12/30 05:13:27;;;;;;;74.95;29.92;;;;;;;-2.72;100.00;100360.66;1759010;81;21822;-82
2021/12/30 05:16:32;;;;;;;77.35;30.82;;;;;;;-2.71;100.00;100362.86;1759234;81;21280;-80
2021/12/30 05:19:38;;;;;;;75.67;31.15;;;;;;;-2.68;100.00;100365.33;1759246;81;21153;-81
2021/12/30 05:22:44;;;;;;;81.12;32.23;;;;;;;-2.59;100.00;100363.45;1708813;84;21869;-80
2021/12/30 05:25:51;;;;;;;75.08;32.23;;;;;;;-2.53;100.00;100357.75;1757562;80;21205;-80
2021/12/30 05:28:55;;;;;;;69.95;31.00;;;;;;;-2.47;100.00;100365.41;1757615;81;21283;-81
2021/12/30 05:32:01;;;;;;;75.85;32.45;;;;;;;-2.44;100.00;100368.39;1708545;84;21292;-81
2021/12/30 05:35:06;;;;;;;65.85;29.65;;;;;;;-2.44;100.00;100363.89;1759010;81;21264;-81
2021/12/30 05:38:16;;;;;;;72.17;29.80;;;;;;;-2.46;100.00;100368.94;1759262;81;21303;-81
2021/12/30 05:41:25;;;;;;;71.15;28.42;;;;;;;-2.51;100.00;100369.70;1708710;82;21751;-81
2021/12/30 05:44:29;;;;;;;58.50;25.48;;;;;;;-2.48;100.00;100375.73;1708243;84;21288;-81
2021/12/30 05:47:35;;;;;;;64.65;27.17;;;;;;;-2.45;100.00;100376.88;1694772;84;21319;-80
2021/12/30 05:50:40;;;;;;;63.35;26.07;;;;;;;-2.46;100.00;100385.02;1696192;84;21209;-81
2021/12/30 05:53:45;;;;;;;73.72;29.07;;;;;;;-2.43;100.00;100382.16;1699336;84;21315;-81
2021/12/30 05:56:50;;;;;;;68.62;29.63;;;;;;;-2.38;100.00;100384.94;1694005;83;21357;-81
2021/12/30 05:59:58;;;;;;;81.08;31.87;;;;;;;-2.33;100.00;100394.91;1698016;84;21292;-80
2021/12/30 06:03:02;;;;;;;70.70;30.92;;;;;;;-2.28;100.00;100391.09;1699269;84;21842;-81
2021/12/30 06:06:08;;;;;;;64.20;29.48;;;;;;;-2.22;100.00;100392.91;1699549;84;21296;-81
2021/12/30 06:09:14;;;;;;;69.27;29.87;;;;;;;-2.18;100.00;100401.15;1701588;82;21228;-81
2021/12/30 06:12:19;;;;;;;75.72;31.00;;;;;;;-2.17;100.00;100403.34;1688469;83;21341;-82
2021/12/30 06:15:24;;;;;;;68.72;29.67;;;;;;;-2.18;100.00;100411.01;1693983;82;21308;-80
2021/12/30 06:18:29;;;;;;;85.77;30.72;;;;;;;-2.16;100.00;100416.67;1665293;84;21155;-81
2021/12/30 06:21:36;;;;;;;60.60;28.52;;;;;;;-2.13;100.00;100415.61;1719165;81;21335;-82
2021/12/30 06:24:44;;;;;;;68.20;29.87;;;;;;;-2.07;100.00;100424.61;1690894;83;22177;-82
2021/12/30 06:27:49;;;;;;;62.35;27.42;;;;;;;-2.02;100.00;100426.56;1694994;83;21244;-81
2021/12/30 06:30:55;;;;;;;61.10;28.62;;;;;;;-1.95;100.00;100431.91;1683084;82;21596;-81
2021/12/30 06:34:01;;;;;;;62.53;27.95;;;;;;;-1.90;100.00;100427.13;1685669;83;21638;-82
2021/12/30 06:37:07;;;;;;;69.67;30.32;;;;;;;-1.82;100.00;100427.53;1677921;84;21338;-81
2021/12/30 06:40:15;;;;;;;65.55;29.60;;;;;;;-1.74;100.00;100421.70;1759875;80;21567;-81
2021/12/30 06:43:20;;;;;;;66.72;29.02;;;;;;;-1.72;100.00;100425.62;1761402;80;21237;-80
2021/12/30 06:46:25;;;;;;;76.45;34.33;;;;;;;-1.72;100.00;100423.80;1758946;80;21284;-81
2021/12/30 06:49:37;;;;;;;75.22;30.72;;;;;;;-1.69;100.00;100419.59;1753667;80;21284;-81
2021/12/30 06:52:39;;;;;;;74.77;34.80;;;;;;;-1.67;100.00;100422.17;1750454;80;21860;-80
2021/12/30 06:55:45;;;;;;;85.83;36.55;;;;;;;-1.65;100.00;100425.12;1752976;79;21199;-80
2021/12/30 06:58:50;;;;;;;69.03;32.50;;;;;;;-1.60;100.00;100427.07;1760456;80;21279;-81
2021/12/30 07:01:57;;;;;;;63.38;28.98;;;;;;;-1.56;100.00;100434.42;1749130;80;21939;-82
2021/12/30 07:05:02;;;;;;;58.00;30.17;;;;;;;-1.52;100.00;100439.98;1717330;82;21285;-82
2021/12/30 07:08:10;;;;;;;58.85;30.50;;;;;;;-1.50;100.00;100439.42;1757750;80;21697;-81
2021/12/30 07:11:15;;;;;;;68.05;29.65;;;;;;;-1.52;100.00;100446.69;1785701;78;21161;-80
2021/12/30 07:14:21;;;;;;;59.33;27.62;;;;;;;-1.57;100.00;100446.11;1748904;81;21335;-81
2021/12/30 07:17:29;;;;;;;78.28;35.45;;;;;;;-1.59;100.00;100449.39;1782378;78;22521;-80
2021/12/30 07:20:35;;;;;;;63.83;31.60;;;;;;;-1.58;100.00;100457.81;1785263;79;21681;-81
2021/12/30 07:23:41;;;;;;;58.15;28.47;;;;;;;-1.59;100.00;100461.45;1790707;78;21406;-80
2021/12/30 07:26:47;;;;;;;51.30;26.07;;;;;;;-1.59;100.00;100472.19;1743855;81;21288;-81
2021/12/30 07:29:52;;;;;;;49.70;25.92;;;;;;;-1.58;100.00;100476.59;1785331;78;21260;-81
2021/12/30 07:32:59;;;;;;;59.30;27.75;;;;;;;-1.57;100.00;100472.94;1787759;79;21782;-81
2021/12/30 07:36:05;;;;;;;68.40;29.72;;;;;;;-1.51;100.00;100484.63;1777700;79;21142;-80
2021/12/30 07:39:11;;;;;;;65.30;30.37;;;;;;;-1.45;100.00;100478.90;1784878;78;21525;-82
2021/12/30 07:42:18;;;;;;;55.58;29.23;;;;;;;-1.42;100.00;100476.00;1779955;79;21172;-82
2021/12/30 07:45:24;;;;;;;61.35;29.37;;;;;;;-1.41;100.00;100480.44;1780311;79;21661;-81
2021/12/30 07:48:29;;;;;;;55.55;27.67;;;;;;;-1.34;100.00;100484.92;1788390;78;21323;-81
2021/12/30 07:51:36;;;;;;;63.13;29.32;;;;;;;-1.26;100.00;100488.48;1780054;79;21149;-81
2021/12/30 07:54:43;;;;;;;60.60;30.48;;;;;;;-1.27;100.00;100480.02;1772034;78;21598;-81
2021/12/30 07:57:50;;;;;;;57.80;28.42;;;;;;;-1.28;100.00;100483.19;1780248;79;21291;-81
2021/12/30 08:00:55;;;;;;;65.65;30.00;;;;;;;-1.31;100.00;100492.31;1779493;79;21358;-81
2021/12/30 08:04:01;;;;;;;64.42;30.02;;;;;;;-1.36;100.00;100487.72;1782931;78;21306;-83
2021/12/30 08:07:07;;;;;;;55.67;28.67;;;;;;;-1.42;100.00;100491.24;1745671;80;21319;-82
2021/12/30 08:10:14;;;;;;;68.35;33.25;;;;;;;-1.43;100.00;100491.73;1784001;79;22219;-82
2021/12/30 08:13:20;;;;;;;75.17;34.48;;;;;;;-1.42;100.00;100489.91;1781143;79;21626;-82
2021/12/30 08:16:28;;;;;;;86.95;40.52;;;;;;;-1.35;100.00;100484.06;1769149;79;21142;-83
2021/12/30 08:19:32;;;;;;;102.62;43.28;;;;;;;-1.25;100.00;100479.46;1759800;79;21157;-82
2021/12/30 08:22:38;;;;;;;83.78;38.65;;;;;;;-1.18;100.00;100471.39;1772129;79;21161;-82
2021/12/30 08:25:49;;;;;;;93.87;42.35;;;;;;;-1.15;100.00;100469.38;1777372;79;21177;-83
2021/12/30 08:28:50;;;;;;;99.80;44.55;;;;;;;-1.10;100.00;100470.43;1771142;79;21268;-82
2021/12/30 08:31:54;;;;;;;96.87;41.05;;;;;;;-1.01;100.00;100464.47;1727626;81;21314;-82
2021/12/30 08:34:59;;;;;;;96.57;40.98;;;;;;;-0.86;100.00;100468.84;1773921;79;21798;-82
2021/12/30 08:38:05;;;;;;;105.07;43.08;;;;;;;-0.78;100.00;100474.58;1765645;79;21309;-83
2021/12/30 08:41:10;;;;;;;93.42;41.23;;;;;;;-0.71;100.00;100472.83;1770643;79;21810;-83
2021/12/30 08:44:16;;;;;;;94.67;38.70;;;;;;;-0.65;100.00;100476.48;1764671;79;21650;-83
2021/12/30 08:47:21;;;;;;;89.70;39.23;;;;;;;-0.61;100.00;100477.52;1775287;79;21899;-82
2021/12/30 08:50:28;;;;;;;87.10;41.73;;;;;;;-0.63;100.00;100481.25;1767563;79;21778;-82
2021/12/30 08:53:35;;;;;;;89.92;41.08;;;;;;;-0.64;100.00;100479.54;1768340;79;21431;-82
2021/12/30 08:56:43;;;;;;;87.57;41.15;;;;;;;-0.65;100.00;100481.85;1764602;79;22121;-82
2021/12/30 08:59:49;;;;;;;84.95;38.75;;;;;;;-0.64;100.00;100484.42;1767367;79;21557;-82
2021/12/30 09:02:55;;;;;;;92.62;41.63;;;;;;;-0.64;100.00;100479.05;1770126;79;21201;-82
2021/12/30 09:06:00;;;;;;;92.60;41.73;;;;;;;-0.60;100.00;100477.03;1767272;79;21292;-82
2021/12/30 09:09:05;;;;;;;102.17;44.60;;;;;;;-0.58;100.00;100477.78;1765586;79;21578;-82
2021/12/30 09:12:11;;;;;;;107.35;46.45;;;;;;;-0.57;100.00;100476.81;1769323;79;21315;-82
2021/12/30 09:15:19;;;;;;;103.90;44.63;;;;;;;-0.58;100.00;100479.12;1751866;79;21292;-82
2021/12/30 09:18:25;;;;;;;105.15;47.30;;;;;;;-0.57;100.00;100484.39;1781120;78;21197;-82
2021/12/30 09:21:30;;;;;;;114.12;49.60;;;;;;;-0.60;100.00;100481.92;1782107;78;21283;-82
2021/12/30 09:24:36;;;;;;;111.72;47.40;;;;;;;-0.64;100.00;100483.56;1752746;80;21272;-82
2021/12/30 09:27:45;;;;;;;104.00;44.40;;;;;;;-0.66;100.00;100494.87;1759369;79;21178;-82
2021/12/30 09:30:51;;;;;;;118.00;47.62;;;;;;;-0.67;100.00;100498.05;1759456;79;21649;-83
2021/12/30 09:33:59;;;;;;;108.15;46.65;;;;;;;-0.65;100.00;100501.52;1765658;79;21169;-82
2021/12/30 09:37:08;;;;;;;112.03;49.70;;;;;;;-0.57;100.00;100487.56;1780837;79;21661;-82
2021/12/30 09:40:14;;;;;;;123.60;49.90;;;;;;;-0.55;100.00;100489.69;1780905;78;21161;-82
2021/12/30 09:43:19;;;;;;;106.90;46.30;;;;;;;-0.51;100.00;100488.52;1718904;81;21442;-82
2021/12/30 09:46:26;;;;;;;97.05;45.60;;;;;;;-0.42;100.00;100487.91;1728632;81;21208;-82
2021/12/30 09:49:31;;;;;;;128.78;52.13;;;;;;;-0.33;100.00;100491.33;1744771;80;21817;-82
2021/12/30 09:52:35;;;;;;;97.50;41.08;;;;;;;-0.21;100.00;100493.66;1782568;78;21666;-82
2021/12/30 09:55:39;;;;;;;107.52;47.48;;;;;;;-0.06;100.00;100491.77;1787383;78;22128;-82
2021/12/30 09:58:45;;;;;;;94.20;44.05;;;;;;;0.02;100.00;100488.08;1747113;80;21835;-82
2021/12/30 10:01:51;;;;;;;110.22;48.00;;;;;;;0.02;100.00;100493.94;1780584;78;22067;-82
2021/12/30 10:05:21;;;;;;;109.27;48.35;;;;;;;0.01;100.00;100479.64;1780443;79;21271;-82
2021/12/30 10:08:36;;;;;;;105.45;48.15;;;;;;;0.13;100.00;100490.88;1783826;79;21810;-82
2021/12/30 10:11:41;;;;;;;104.53;50.43;;;;;;;0.16;100.00;100483.09;1777474;78;21296;-82
2021/12/30 10:14:47;;;;;;;104.23;50.03;;;;;;;0.11;100.00;100477.17;1741039;80;21805;-82
2021/12/30 10:29:35;;;;;;;100.40;49.88;;;;;;;0.02;100.00;100463.02;1769762;79;21112;-82
2021/12/30 10:32:39;;;;;;;101.15;47.78;;;;;;;-0.05;100.00;100467.48;1785479;78;21295;-82
2021/12/30 10:35:47;;;;;;;100.62;46.75;;;;;;;-0.01;100.00;100473.00;1794314;78;21142;-82
2021/12/30 10:38:53;;;;;;;109.42;49.90;;;;;;;-0.01;100.00;100468.96;1776745;79;21327;-81
2021/12/30 10:42:21;;;;;;;116.65;51.28;;;;;;;-0.01;100.00;100461.38;1788050;79;21580;-82
2021/12/30 10:45:24;;;;;;;122.90;50.90;;;;;;;-0.03;100.00;100460.64;1788989;78;21248;-82
2021/12/30 10:48:34;;;;;;;108.17;51.58;;;;;;;-0.04;100.00;100456.23;1782951;77;21257;-82
2021/12/30 10:51:49;;;;;;;113.72;48.65;;;;;;;-0.02;100.00;100459.18;1777457;79;21417;-82
2021/12/30 10:54:58;;;;;;;148.25;61.77;;;;;;;0.01;100.00;100457.27;1766661;79;21350;-82
2021/12/30 10:58:07;;;;;;;149.38;61.63;;;;;;;-0.01;100.00;100462.23;1771275;79;21216;-82
2021/12/30 11:01:24;;;;;;;124.05;55.08;;;;;;;-0.09;100.00;100456.55;1780492;79;21949;-81
2021/12/30 11:04:39;;;;;;;130.12;57.83;;;;;;;-0.13;100.00;100464.93;1770318;79;21669;-81
2021/12/30 11:07:57;;;;;;;120.28;53.15;;;;;;;-0.11;100.00;100462.98;1756772;79;21217;-82
2021/12/30 11:11:03;;;;;;;128.65;57.25;;;;;;;0.01;100.00;100458.61;1771324;79;22249;-82
2021/12/30 11:14:13;;;;;;;131.87;55.17;;;;;;;0.08;100.00;100466.12;1784390;79;21292;-81
2021/12/30 11:17:34;;;;;;;128.35;54.05;;;;;;;0.06;100.00;100472.59;1763510;80;22344;-82
2021/12/30 11:20:33;;;;;;;136.85;53.63;;;;;;;0.00;100.00;100472.55;1751917;80;21295;-83
2021/12/30 11:23:38;;;;;;;142.77;57.43;;;;;;;0.01;100.00;100469.37;1764013;80;21956;-83
2021/12/30 11:26:45;;;;;;;145.45;58.55;;;;;;;-0.02;100.00;100461.87;1678967;82;21305;-82
2021/12/30 11:29:54;;;;;;;132.03;54.95;;;;;;;-0.01;100.00;100468.96;1737392;80;21287;-82
2021/12/30 11:33:02;;;;;;;124.53;52.25;;;;;;;-0.01;100.00;100470.80;1770530;80;21756;-82
2021/12/30 11:36:10;;;;;;;127.25;56.20;;;;;;;-0.09;100.00;100470.48;1767389;80;21178;-82
2021/12/30 11:39:23;;;;;;;110.05;50.92;;;;;;;-0.07;100.00;100475.26;1742538;80;21182;-82
2021/12/30 11:42:48;;;;;;;109.97;51.70;;;;;;;0.00;100.00;100468.51;1761624;79;21963;-82
2021/12/30 11:45:58;;;;;;;124.18;54.90;;;;;;;0.10;100.00;100468.25;1765973;80;21519;-82
2021/12/30 11:49:07;;;;;;;111.75;51.02;;;;;;;0.17;100.00;100463.30;1766106;79;21174;-82
2021/12/30 11:52:14;;;;;;;120.53;54.83;;;;;;;0.21;100.00;100462.97;1770283;80;22163;-82
2021/12/30 11:55:59;;;;;;;118.08;51.60;;;;;;;0.19;100.00;100466.27;1763816;81;21594;-82
2021/12/30 11:59:06;;;;;;;115.15;52.05;;;;;;;0.18;100.00;100467.70;1773651;80;21272;-82
2021/12/30 12:02:29;;;;;;;110.95;52.08;;;;;;;0.18;100.00;100463.66;1749613;82;21570;-82
2021/12/30 12:05:50;;;;;;;83.07;39.80;;;;;;;0.17;100.00;100483.47;1752059;80;21794;-81
2021/12/30 12:08:57;;;;;;;118.45;53.78;;;;;;;0.19;100.00;100483.76;1745863;81;21177;-82
2021/12/30 12:12:16;;;;;;;127.22;53.85;;;;;;;0.25;100.00;100487.84;1728791;81;21200;-81
2021/12/30 12:15:24;;;;;;;115.22;53.02;;;;;;;0.24;100.00;100489.68;1744510;79;21367;-82
2021/12/30 12:18:31;;;;;;;124.18;54.45;;;;;;;0.10;100.00;100481.70;1757142;81;21214;-82
2021/12/30 12:21:59;;;;;;;112.05;48.60;;;;;;;0.00;100.00;100479.27;1781987;78;21745;-80
2021/12/30 12:25:28;;;;;;;115.67;56.33;;;;;;;-0.07;100.00;100484.67;1757393;80;21854;-81
2021/12/30 12:28:40;;;;;;;112.60;50.38;;;;;;;-0.13;100.00;100488.64;1796139;78;21277;-81
2021/12/30 12:32:14;;;;;;;111.83;54.33;;;;;;;-0.12;100.00;100487.67;1779789;78;21347;-81
2021/12/30 12:35:33;;;;;;;126.95;55.30;;;;;;;-0.12;100.00;100490.84;1779413;79;21241;-81
2021/12/30 12:38:57;;;;;;;118.22;51.23;;;;;;;-0.18;100.00;100492.13;1787151;79;21197;-81
2021/12/30 12:42:03;;;;;;;108.05;52.05;;;;;;;-0.23;100.00;100493.41;1778286;79;21235;-81
2021/12/30 12:45:36;;;;;;;116.15;53.78;;;;;;;-0.29;100.00;100490.63;1745351;81;21307;-81
2021/12/30 12:48:47;;;;;;;104.35;47.75;;;;;;;-0.27;100.00;100497.63;1702644;82;21327;-81
2021/12/30 12:52:01;;;;;;;112.68;49.53;;;;;;;-0.24;100.00;100501.06;1707152;83;21320;-81
2021/12/30 12:55:07;;;;;;;112.83;52.73;;;;;;;-0.32;100.00;100509.66;1747105;80;21786;-81
2021/12/30 12:58:15;;;;;;;109.85;50.75;;;;;;;-0.37;100.00;100512.66;1756274;79;21307;-81
2021/12/30 13:01:22;;;;;;;119.00;55.48;;;;;;;-0.45;100.00;100510.95;1797620;79;21706;-81
2021/12/30 13:04:28;;;;;;;133.37;62.33;;;;;;;-0.56;100.00;100506.77;1769288;80;21169;-81
2021/12/30 13:07:34;;;;;;;145.25;62.27;;;;;;;-0.64;100.00;100505.06;1760944;79;21336;-81
2021/12/30 13:10:40;;;;;;;157.78;66.82;;;;;;;-0.71;100.00;100509.09;1769230;81;21652;-81
2021/12/30 13:13:49;;;;;;;122.60;54.53;;;;;;;-0.74;100.00;100514.69;1750828;81;21208;-81
2021/12/30 13:17:13;;;;;;;111.00;51.37;;;;;;;-0.78;100.00;100511.33;1765193;81;21346;-81
2021/12/30 13:20:18;;;;;;;110.92;52.40;;;;;;;-0.82;100.00;100526.77;1766536;81;21269;-81
2021/12/30 13:23:40;;;;;;;125.95;54.67;;;;;;;-0.89;100.00;100526.80;1735871;81;21356;-81
2021/12/30 13:26:46;;;;;;;115.37;52.23;;;;;;;-1.04;100.00;100519.21;1762192;79;21306;-81
2021/12/30 13:30:05;;;;;;;123.85;57.23;;;;;;;-1.11;100.00;100531.31;1784686;79;21110;-81
2021/12/30 13:33:10;;;;;;;120.50;55.98;;;;;;;-1.15;100.00;100536.97;1792242;79;21303;-80
2021/12/30 13:36:22;;;;;;;120.62;54.05;;;;;;;-1.23;100.00;100539.27;1746048;81;21201;-80
2021/12/30 13:39:27;;;;;;;119.10;55.00;;;;;;;-1.30;100.00;100533.43;1682206;84;21213;-81
2021/12/30 13:42:35;;;;;;;128.18;57.30;;;;;;;-1.37;100.00;100538.30;1788680;79;21201;-80
2021/12/30 13:45:48;;;;;;;122.35;55.43;;;;;;;-1.46;100.00;100532.16;1794447;80;21292;-80
2021/12/30 13:48:55;;;;;;;109.80;51.68;;;;;;;-1.52;100.00;100539.24;1794223;80;21216;-80
2021/12/30 13:52:00;;;;;;;124.18;56.65;;;;;;;-1.59;100.00;100538.77;1792262;79;21758;-80
2021/12/30 13:55:39;;;;;;;111.60;48.42;;;;;;;-1.65;100.00;100539.12;1791717;80;21240;-80
2021/12/30 13:58:49;;;;;;;124.60;55.33;;;;;;;-1.68;100.00;100546.52;1790229;80;21280;-83
2021/12/30 14:01:59;;;;;;;128.20;57.05;;;;;;;-1.75;100.00;100548.68;1791540;80;21185;-82
2021/12/30 14:05:15;;;;;;;135.70;53.42;;;;;;;-1.77;100.00;100550.61;1795540;80;21881;-82
2021/12/30 14:08:23;;;;;;;109.05;50.98;;;;;;;-1.80;100.00;100547.62;1765258;81;21312;-83
2021/12/30 14:11:53;;;;;;;122.62;54.83;;;;;;;-1.80;100.00;100552.98;1761266;81;21751;-82
2021/12/30 14:14:59;;;;;;;118.95;52.45;;;;;;;-1.77;100.00;100551.09;1755778;81;21312;-83